Time;durP1;ratioP1;P1;durP2;ratioP2;P2;SDS_P1;SDS_P2;PMS_P1;PMS_P2;Temp;Humidity;BMP_temperature;BMP_pressure;BME280_temperature;BME280_humidity;BME280_pressure;Samples;Min_cycle;Max_cycle;Signal;HPM_P1;HPM_P2
2021/12/04 00:00:29;;;;;;;;;;;;;;;3.34;nan;99396.09;5013012;28;19921;-86
2021/12/04 00:02:54;;;;;;;;;;;;;;;3.37;nan;99404.50;4997765;28;19974;-86
2021/12/04 00:05:20;;;;;;;;;;;;;;;3.39;nan;99389.50;4981898;28;19926;-86
2021/12/04 00:07:46;;;;;;;;;;;;;;;3.44;nan;99396.94;4994299;28;19918;-85
2021/12/04 00:10:17;;;;;;;;;;;;;;;3.40;nan;99391.16;5001704;28;20294;-87
2021/12/04 00:12:43;;;;;;;;;;;;;;;3.44;nan;99383.06;5003730;28;19917;-86
2021/12/04 00:15:08;;;;;;;;;;;;;;;3.48;nan;99381.81;4976999;28;19981;-86
2021/12/04 00:17:34;;;;;;;;;;;;;;;3.43;nan;99376.97;4983402;28;19922;-86
2021/12/04 00:19:59;;;;;;;;;;;;;;;3.46;nan;99378.53;4976450;28;19930;-86
2021/12/04 00:22:24;;;;;;;;;;;;;;;3.38;nan;99366.13;4987392;28;19967;-86
2021/12/04 00:24:49;;;;;;;;;;;;;;;3.33;nan;99353.44;4986266;28;20004;-85
2021/12/04 00:27:14;;;;;;;;;;;;;;;3.21;nan;99351.09;4982514;28;19925;-85
2021/12/04 00:29:40;;;;;;;;;;;;;;;3.03;nan;99340.44;4985294;28;19914;-86
2021/12/04 00:32:14;;;;;;;;;;;;;;;2.93;nan;99335.19;4993211;28;19917;-85
2021/12/04 00:34:46;;;;;;;;;;;;;;;2.94;nan;99329.84;4976821;28;19925;-85
2021/12/04 00:51:04;;;;;;;;;;;;;;;2.72;nan;99283.88;5002476;28;20325;-85
2021/12/04 00:53:29;;;;;;;;;;;;;;;2.70;nan;99285.81;4995679;28;19917;-85
2021/12/04 00:55:54;;;;;;;;;;;;;;;2.75;nan;99291.44;4994693;28;19924;-85
2021/12/04 00:58:19;;;;;;;;;;;;;;;2.74;nan;99281.13;4976896;28;19922;-85
2021/12/04 01:00:45;;;;;;;;;;;;;;;2.72;nan;99280.47;4975689;28;19945;-85
2021/12/04 01:03:10;;;;;;;;;;;;;;;2.71;nan;99279.59;4975627;28;19968;-85
2021/12/04 01:05:35;;;;;;;;;;;;;;;2.81;nan;99289.25;5008586;28;19928;-85
2021/12/04 01:08:00;;;;;;;;;;;;;;;2.85;nan;99285.44;4993698;28;20407;-85
2021/12/04 01:10:26;;;;;;;;;;;;;;;2.89;nan;99292.06;4992471;28;20493;-84
2021/12/04 01:12:51;;;;;;;;;;;;;;;2.96;nan;99296.59;4975887;28;20294;-86
2021/12/04 01:15:16;;;;;;;;;;;;;;;2.94;nan;99306.34;5008584;28;19964;-85
2021/12/04 01:17:41;;;;;;;;;;;;;;;2.88;nan;99293.81;4992957;28;19925;-85
2021/12/04 01:20:07;;;;;;;;;;;;;;;2.79;nan;99288.56;4981290;28;20296;-85
2021/12/04 01:22:33;;;;;;;;;;;;;;;2.71;nan;99297.88;4975592;28;19922;-85
2021/12/04 01:24:59;;;;;;;;;;;;;;;2.72;nan;99289.09;4975835;28;19917;-85
2021/12/04 01:27:24;;;;;;;;;;;;;;;2.66;nan;99286.19;4975740;28;19921;-85
2021/12/04 01:29:49;;;;;;;;;;;;;;;2.67;nan;99280.84;4976164;28;19929;-85
2021/12/04 01:32:14;;;;;;;;;;;;;;;2.70;nan;99277.16;4993747;28;20376;-84
2021/12/04 01:34:40;;;;;;;;;;;;;;;2.62;nan;99275.19;4976664;28;19922;-85
2021/12/04 01:37:05;;;;;;;;;;;;;;;2.61;nan;99260.50;4975622;28;20307;-85
2021/12/04 01:39:31;;;;;;;;;;;;;;;2.65;nan;99255.84;4998953;28;20394;-83
2021/12/04 01:41:56;;;;;;;;;;;;;;;2.53;nan;99255.13;5028466;28;19918;-84
2021/12/04 01:44:22;;;;;;;;;;;;;;;2.54;nan;99252.34;4987371;28;19918;-83
2021/12/04 01:46:48;;;;;;;;;;;;;;;2.54;nan;99241.91;5005544;28;19918;-83
2021/12/04 01:49:13;;;;;;;;;;;;;;;2.49;nan;99241.50;5008222;28;19916;-83
2021/12/04 01:51:39;;;;;;;;;;;;;;;2.50;nan;99234.47;5006992;28;20390;-84
2021/12/04 01:54:04;;;;;;;;;;;;;;;2.48;nan;99225.97;4992050;28;19924;-84
2021/12/04 01:56:31;;;;;;;;;;;;;;;2.47;nan;99230.34;5006497;28;19914;-83
2021/12/04 01:58:56;;;;;;;;;;;;;;;2.49;nan;99222.41;5007085;28;20339;-84
2021/12/04 02:01:21;;;;;;;;;;;;;;;2.48;nan;99239.00;5006410;28;19913;-84
2021/12/04 02:03:46;;;;;;;;;;;;;;;2.45;nan;99228.84;4989542;28;19910;-84
2021/12/04 02:06:12;;;;;;;;;;;;;;;2.45;nan;99224.44;5010263;28;19913;-84
2021/12/04 02:08:38;;;;;;;;;;;;;;;2.35;nan;99226.19;5009026;28;19979;-83
2021/12/04 02:11:03;;;;;;;;;;;;;;;2.45;nan;99223.63;5006160;28;19914;-85
2021/12/04 02:13:29;;;;;;;;;;;;;;;2.42;nan;99223.91;4991350;28;19910;-84
2021/12/04 02:15:54;;;;;;;;;;;;;;;2.33;nan;99221.09;5011926;28;19913;-84
2021/12/04 02:18:20;;;;;;;;;;;;;;;2.43;nan;99215.94;5009118;28;20074;-84
2021/12/04 02:20:46;;;;;;;;;;;;;;;2.33;nan;99207.25;5021971;28;19910;-84
2021/12/04 02:23:11;;;;;;;;;;;;;;;2.16;nan;99198.25;4990808;28;19960;-84
2021/12/04 02:25:37;;;;;;;;;;;;;;;2.16;nan;99194.81;5007346;28;20339;-85
2021/12/04 02:28:03;;;;;;;;;;;;;;;2.15;nan;99188.78;5020967;28;19914;-85
2021/12/04 02:30:30;;;;;;;;;;;;;;;2.08;nan;99190.25;4982736;28;19910;-85
2021/12/04 02:32:56;;;;;;;;;;;;;;;2.06;nan;99185.16;5003453;28;19917;-85
2021/12/04 02:35:21;;;;;;;;;;;;;;;2.00;nan;99179.66;4999802;28;20343;-85
2021/12/04 02:37:47;;;;;;;;;;;;;;;1.95;nan;99177.44;5008654;28;19914;-85
2021/12/04 02:40:13;;;;;;;;;;;;;;;1.88;nan;99171.94;5000789;28;19971;-84
2021/12/04 02:42:39;;;;;;;;;;;;;;;1.71;nan;99167.28;5032058;28;20001;-85
2021/12/04 02:45:07;;;;;;;;;;;;;;;1.68;nan;99157.94;5021223;28;19969;-85
2021/12/04 02:47:33;;;;;;;;;;;;;;;1.57;nan;99152.81;5012926;28;19949;-86
2021/12/04 02:49:58;;;;;;;;;;;;;;;1.43;nan;99153.13;5001096;28;20294;-85
2021/12/04 02:52:24;;;;;;;;;;;;;;;1.36;nan;99145.03;5021956;28;19938;-84
2021/12/04 02:54:50;;;;;;;;;;;;;;;1.28;nan;99144.81;5012962;28;19921;-85
2021/12/04 02:57:16;;;;;;;;;;;;;;;1.21;nan;99144.47;4987359;28;19933;-84
2021/12/04 02:59:42;;;;;;;;;;;;;;;1.17;nan;99134.44;4982599;28;19925;-85
2021/12/04 03:02:15;;;;;;;;;;;;;;;1.08;nan;99122.22;5026435;28;19925;-84
2021/12/04 03:04:40;;;;;;;;;;;;;;;0.97;nan;99118.69;4996183;28;19918;-83
2021/12/04 03:07:05;;;;;;;;;;;;;;;0.94;nan;99112.91;4991276;28;19924;-85
2021/12/04 03:09:30;;;;;;;;;;;;;;;0.88;nan;99108.19;4997216;28;20008;-83
2021/12/04 03:11:55;;;;;;;;;;;;;;;0.78;nan;99108.13;5026598;28;19923;-84
2021/12/04 03:14:22;;;;;;;;;;;;;;;0.73;nan;99095.50;5000439;28;20028;-84
2021/12/04 03:16:47;;;;;;;;;;;;;;;0.68;nan;99091.63;5001489;28;19980;-84
2021/12/04 03:19:12;;;;;;;;;;;;;;;0.71;nan;99083.56;5000353;28;20105;-85
2021/12/04 03:21:39;;;;;;;;;;;;;;;0.67;nan;99079.53;5002240;28;20342;-83
2021/12/04 03:24:08;;;;;;;;;;;;;;;0.74;nan;99078.94;4995066;28;19929;-83
2021/12/04 03:26:34;;;;;;;;;;;;;;;0.77;nan;99059.66;5004448;28;19918;-85
2021/12/04 03:29:01;;;;;;;;;;;;;;;0.82;nan;99057.50;4990864;28;19969;-85
2021/12/04 03:42:04;;;;;;;;;;;;;;;1.06;nan;99026.84;4996983;28;19929;-86
2021/12/04 03:44:31;;;;;;;;;;;;;;;1.15;nan;99021.81;5009022;28;19913;-86
2021/12/04 03:46:56;;;;;;;;;;;;;;;1.18;nan;99022.38;5027674;28;19964;-86
2021/12/04 03:49:21;;;;;;;;;;;;;;;1.27;nan;99015.59;5020628;28;19921;-86
2021/12/04 03:51:46;;;;;;;;;;;;;;;1.34;nan;99016.72;4983614;28;19950;-86
2021/12/04 03:54:12;;;;;;;;;;;;;;;1.41;nan;98999.59;4998605;28;19957;-85
2021/12/04 03:56:37;;;;;;;;;;;;;;;1.45;nan;98994.94;4999618;28;19925;-86
2021/12/04 03:59:03;;;;;;;;;;;;;;;1.53;nan;98987.31;5020747;28;19921;-85
2021/12/04 04:01:28;;;;;;;;;;;;;;;1.57;nan;98990.47;4999233;28;19917;-86
2021/12/04 04:03:53;;;;;;;;;;;;;;;1.59;nan;98988.56;4974833;28;19914;-85
2021/12/04 04:06:18;;;;;;;;;;;;;;;1.70;nan;98991.06;4992925;28;19918;-86
2021/12/04 04:08:44;;;;;;;;;;;;;;;1.75;nan;98975.84;5016032;28;19924;-86
2021/12/04 04:11:09;;;;;;;;;;;;;;;1.83;nan;98981.22;5003029;28;19953;-86
2021/12/04 04:13:34;;;;;;;;;;;;;;;1.90;nan;98977.09;5002809;28;19957;-86
2021/12/04 04:16:00;;;;;;;;;;;;;;;2.00;nan;98973.69;5004204;28;20005;-86
2021/12/04 04:18:27;;;;;;;;;;;;;;;2.03;nan;98973.44;5011110;28;20334;-86
2021/12/04 04:20:52;;;;;;;;;;;;;;;2.06;nan;98970.56;5006935;28;19956;-86
2021/12/04 04:23:18;;;;;;;;;;;;;;;2.11;nan;98968.38;5021922;28;19921;-86
2021/12/04 04:25:43;;;;;;;;;;;;;;;2.15;nan;98963.72;5004108;28;19917;-86
2021/12/04 04:28:09;;;;;;;;;;;;;;;2.17;nan;98962.63;4997786;28;19914;-86
2021/12/04 04:30:36;;;;;;;;;;;;;;;2.20;nan;98961.50;4995175;28;19956;-86
2021/12/04 04:33:02;;;;;;;;;;;;;;;2.27;nan;98953.00;4995288;28;19921;-86
2021/12/04 04:35:28;;;;;;;;;;;;;;;2.34;nan;98954.09;4994857;28;20429;-86
2021/12/04 05:02:35;;;;;;;;;;;;;;;2.48;nan;98923.31;4993902;28;19938;-86
2021/12/04 05:10:19;;;;;;;;;;;;;;;2.53;nan;98918.53;4995907;28;20013;-86
2021/12/04 05:13:23;;;;;;;;;;;;;;;2.58;nan;98918.09;4996740;28;19925;-86
2021/12/04 05:20:49;;;;;;;;;;;;;;;2.47;nan;98909.44;4996684;28;19917;-86
2021/12/04 05:23:14;;;;;;;;;;;;;;;2.54;nan;98914.94;5015137;28;19977;-86
2021/12/04 05:25:40;;;;;;;;;;;;;;;2.62;nan;98912.47;5005672;28;20786;-86
2021/12/04 05:28:06;;;;;;;;;;;;;;;2.59;nan;98902.28;4995881;28;20130;-88
2021/12/04 05:30:31;;;;;;;;;;;;;;;2.59;nan;98904.09;4981730;28;19941;-86
2021/12/04 05:32:57;;;;;;;;;;;;;;;2.59;nan;98901.47;4993695;28;20121;-86
2021/12/04 05:35:22;;;;;;;;;;;;;;;2.56;nan;98902.59;4980844;28;19918;-86
2021/12/04 05:37:48;;;;;;;;;;;;;;;2.62;nan;98901.19;4993423;28;19977;-86
2021/12/04 05:40:15;;;;;;;;;;;;;;;2.70;nan;98893.50;4993941;28;19922;-87
2021/12/04 05:42:42;;;;;;;;;;;;;;;2.64;nan;98894.03;4994009;28;19917;-86
2021/12/04 05:45:14;;;;;;;;;;;;;;;2.63;nan;98893.22;5001938;28;19924;-86
2021/12/04 05:47:46;;;;;;;;;;;;;;;2.70;nan;98881.25;4978409;28;19920;-87
2021/12/04 05:53:14;;;;;;;;;;;;;;;2.74;nan;98873.94;4997355;28;19914;-86
2021/12/04 05:55:51;;;;;;;;;;;;;;;2.70;nan;98873.44;4994888;28;19928;-85
2021/12/04 05:58:16;;;;;;;;;;;;;;;2.68;nan;98875.34;4994841;28;19972;-86
2021/12/04 06:00:41;;;;;;;;;;;;;;;2.74;nan;98871.34;5010570;28;19959;-86
2021/12/04 06:03:06;;;;;;;;;;;;;;;2.75;nan;98871.22;4995072;28;20331;-86
2021/12/04 06:05:31;;;;;;;;;;;;;;;2.72;nan;98868.06;4993344;28;19917;-86
2021/12/04 06:07:57;;;;;;;;;;;;;;;2.75;nan;98867.78;4976678;28;20012;-86
2021/12/04 06:10:22;;;;;;;;;;;;;;;2.78;nan;98864.06;4974273;28;20112;-87
2021/12/04 06:12:47;;;;;;;;;;;;;;;2.75;nan;98858.16;4975838;28;19917;-86
2021/12/04 06:15:12;;;;;;;;;;;;;;;2.73;nan;98860.09;4976086;28;19975;-86
2021/12/04 06:17:38;;;;;;;;;;;;;;;2.73;nan;98851.44;5008559;28;20387;-86
2021/12/04 06:22:47;;;;;;;;;;;;;;;2.78;nan;98845.78;4994221;28;20360;-87
2021/12/04 06:25:14;;;;;;;;;;;;;;;2.76;nan;98838.94;4984298;28;19957;-86
2021/12/04 06:27:40;;;;;;;;;;;;;;;2.74;nan;98840.03;4991908;28;19924;-86
2021/12/04 06:30:07;;;;;;;;;;;;;;;2.71;nan;98845.53;4992114;28;19918;-86
2021/12/04 06:32:35;;;;;;;;;;;;;;;2.85;nan;98841.63;4993289;28;19914;-87
2021/12/04 06:35:01;;;;;;;;;;;;;;;2.89;nan;98829.94;4992448;28;20060;-86
2021/12/04 06:37:26;;;;;;;;;;;;;;;2.88;nan;98833.50;4992051;28;19972;-86
2021/12/04 06:39:51;;;;;;;;;;;;;;;2.81;nan;98825.44;4992888;28;19921;-86
2021/12/04 06:42:17;;;;;;;;;;;;;;;2.78;nan;98833.56;5012439;28;19929;-86
2021/12/04 06:44:42;;;;;;;;;;;;;;;2.79;nan;98832.59;4984285;28;19941;-86
2021/12/04 06:47:07;;;;;;;;;;;;;;;2.88;nan;98828.28;4999698;28;19949;-86
2021/12/04 06:49:37;;;;;;;;;;;;;;;2.88;nan;98830.91;4999301;28;20302;-86
2021/12/04 06:52:05;;;;;;;;;;;;;;;2.95;nan;98835.41;4981663;28;19964;-86
2021/12/04 06:54:36;;;;;;;;;;;;;;;2.94;nan;98822.50;4980719;28;19918;-86
2021/12/04 06:57:03;;;;;;;;;;;;;;;3.07;nan;98822.16;5019438;28;19925;-86
2021/12/04 06:59:31;;;;;;;;;;;;;;;3.06;nan;98818.72;5021030;28;19921;-86
2021/12/04 07:01:56;;;;;;;;;;;;;;;2.96;nan;98821.38;5018660;28;20011;-86
2021/12/04 07:04:28;;;;;;;;;;;;;;;3.01;nan;98813.13;5000668;28;19917;-86
2021/12/04 07:06:53;;;;;;;;;;;;;;;3.03;nan;98810.34;5002060;28;19914;-86
2021/12/04 07:09:19;;;;;;;;;;;;;;;3.07;nan;98815.13;4983952;28;19944;-86
2021/12/04 07:11:44;;;;;;;;;;;;;;;3.04;nan;98818.03;5001450;28;20020;-86
2021/12/04 07:14:09;;;;;;;;;;;;;;;2.97;nan;98812.56;5000464;28;19921;-86
2021/12/04 07:16:35;;;;;;;;;;;;;;;3.02;nan;98819.16;5015879;28;19945;-86
2021/12/04 07:19:00;;;;;;;;;;;;;;;3.01;nan;98812.31;4982038;28;20012;-86
2021/12/04 07:21:25;;;;;;;;;;;;;;;3.02;nan;98812.16;5000009;28;19914;-87
2021/12/04 07:23:51;;;;;;;;;;;;;;;2.98;nan;98811.63;4982744;28;19956;-86
2021/12/04 07:26:17;;;;;;;;;;;;;;;3.05;nan;98811.03;4984868;28;19918;-87
2021/12/04 07:28:42;;;;;;;;;;;;;;;3.08;nan;98815.97;5000850;28;19917;-86
2021/12/04 07:31:08;;;;;;;;;;;;;;;3.09;nan;98813.22;4984795;28;19945;-87
2021/12/04 07:33:33;;;;;;;;;;;;;;;3.11;nan;98802.63;4984783;28;19914;-86
2021/12/04 07:35:59;;;;;;;;;;;;;;;3.13;nan;98809.34;5003181;28;19936;-86
2021/12/04 07:38:24;;;;;;;;;;;;;;;3.13;nan;98800.69;4999913;28;19918;-86
2021/12/04 07:40:51;;;;;;;;;;;;;;;3.20;nan;98799.13;4981756;28;19917;-86
2021/12/04 07:43:16;;;;;;;;;;;;;;;3.25;nan;98801.31;4981703;28;19976;-87
2021/12/04 07:45:41;;;;;;;;;;;;;;;3.29;nan;98793.03;4995399;28;19960;-87
2021/12/04 07:48:07;;;;;;;;;;;;;;;3.32;nan;98797.13;5000479;28;20421;-87
2021/12/04 07:50:32;;;;;;;;;;;;;;;3.36;nan;98794.09;5000606;28;19918;-86
2021/12/04 07:52:58;;;;;;;;;;;;;;;3.36;nan;98793.25;5023545;28;19918;-86
2021/12/04 07:55:23;;;;;;;;;;;;;;;3.37;nan;98795.72;4996275;28;19926;-87
2021/12/04 07:57:49;;;;;;;;;;;;;;;3.39;nan;98785.94;5002942;28;20364;-86
2021/12/04 08:00:15;;;;;;;;;;;;;;;3.43;nan;98793.47;5000935;28;19937;-86
2021/12/04 08:02:41;;;;;;;;;;;;;;;3.47;nan;98795.63;5016400;28;20372;-86
2021/12/04 08:05:08;;;;;;;;;;;;;;;3.54;nan;98786.22;4982800;28;19956;-87
2021/12/04 08:07:33;;;;;;;;;;;;;;;3.55;nan;98792.28;5015471;28;19974;-87
2021/12/04 08:09:58;;;;;;;;;;;;;;;3.51;nan;98786.53;5014928;28;19953;-86
2021/12/04 08:12:23;;;;;;;;;;;;;;;3.51;nan;98793.56;4983564;28;19917;-87
2021/12/04 08:14:49;;;;;;;;;;;;;;;3.52;nan;98782.13;4985720;28;19927;-87
2021/12/04 08:17:14;;;;;;;;;;;;;;;3.63;nan;98786.31;4985574;28;19921;-86
2021/12/04 08:19:39;;;;;;;;;;;;;;;3.64;nan;98791.38;4985641;28;19929;-86
2021/12/04 08:22:05;;;;;;;;;;;;;;;3.59;nan;98781.38;5019369;28;20412;-87
2021/12/04 08:24:30;;;;;;;;;;;;;;;3.57;nan;98785.09;5033743;28;20325;-86
2021/12/04 08:26:56;;;;;;;;;;;;;;;3.52;nan;98777.72;5031232;28;20463;-86
2021/12/04 08:29:21;;;;;;;;;;;;;;;3.48;nan;98784.22;4987146;28;20379;-86
2021/12/04 08:31:47;;;;;;;;;;;;;;;3.57;nan;98785.91;4986445;28;19913;-86
2021/12/04 08:34:13;;;;;;;;;;;;;;;3.44;nan;98775.03;4987045;28;19925;-86
2021/12/04 08:36:38;;;;;;;;;;;;;;;3.51;nan;98778.69;4984721;28;19917;-87
2021/12/04 08:39:04;;;;;;;;;;;;;;;3.38;nan;98783.47;4984073;28;19921;-86
2021/12/04 08:41:30;;;;;;;;;;;;;;;3.45;nan;98786.31;4989926;28;19987;-87
2021/12/04 08:43:55;;;;;;;;;;;;;;;3.43;nan;98778.59;5022277;28;20383;-86
2021/12/04 08:46:21;;;;;;;;;;;;;;;3.42;nan;98774.38;5017835;28;20458;-86
2021/12/04 08:48:47;;;;;;;;;;;;;;;3.41;nan;98770.13;5000475;28;19963;-87
2021/12/04 08:51:13;;;;;;;;;;;;;;;3.39;nan;98766.84;4982661;28;20367;-86
2021/12/04 08:53:38;;;;;;;;;;;;;;;3.42;nan;98773.56;4983183;28;19921;-87
2021/12/04 08:56:03;;;;;;;;;;;;;;;3.49;nan;98766.75;5000539;28;19926;-87
2021/12/04 08:58:29;;;;;;;;;;;;;;;3.53;nan;98774.16;5009614;28;19917;-86
2021/12/04 09:00:57;;;;;;;;;;;;;;;3.58;nan;98771.91;5000206;28;19944;-87
2021/12/04 09:03:26;;;;;;;;;;;;;;;3.59;nan;98770.09;4983018;28;19922;-86
2021/12/04 09:05:51;;;;;;;;;;;;;;;3.60;nan;98769.16;5003634;28;20282;-87
2021/12/04 09:08:17;;;;;;;;;;;;;;;3.65;nan;98774.75;5003423;28;19914;-86
2021/12/04 09:10:46;;;;;;;;;;;;;;;3.72;nan;98767.94;5002376;28;19913;-85
2021/12/04 09:13:11;;;;;;;;;;;;;;;3.64;nan;98767.84;5004475;28;19922;-86
2021/12/04 09:15:37;;;;;;;;;;;;;;;3.77;nan;98762.25;4987111;28;19924;-87
2021/12/04 09:18:02;;;;;;;;;;;;;;;3.80;nan;98764.56;5003917;28;19928;-87
2021/12/04 09:20:30;;;;;;;;;;;;;;;3.78;nan;98766.50;4988862;28;19933;-86
2021/12/04 09:22:56;;;;;;;;;;;;;;;3.80;nan;98767.19;5002862;28;19918;-86
2021/12/04 09:25:24;;;;;;;;;;;;;;;3.89;nan;98763.66;5021927;28;19994;-86
2021/12/04 09:31:10;;;;;;;;;;;;;;;3.97;nan;98755.84;4999468;28;20027;-86
2021/12/04 09:36:46;;;;;;;;;;;;;;;3.96;nan;98746.38;4996245;28;19994;-87
2021/12/04 10:01:10;;;;;;;;;;;;;;;4.21;nan;98725.59;4993839;28;19937;-86
2021/12/04 10:04:28;;;;;;;;;;;;;;;4.33;nan;98718.28;4986423;28;19944;-88
2021/12/04 10:12:11;;;;;;;;;;;;;;;4.40;nan;98695.75;4998380;28;19940;-87
2021/12/04 10:22:22;;;;;;;;;;;;;;;4.46;nan;98689.91;4993011;28;19975;-87
2021/12/04 10:32:02;;;;;;;;;;;;;;;4.52;nan;98686.63;4974524;28;19921;-87
2021/12/04 10:33:37;;;;;;;;;;;;;;;4.49;nan;98673.06;4987938;28;19924;-86
2021/12/04 10:36:03;;;;;;;;;;;;;;;4.47;nan;98668.78;4991294;28;19925;-86
2021/12/04 10:38:32;;;;;;;;;;;;;;;4.53;nan;98666.50;4992724;28;19918;-86
2021/12/04 10:40:57;;;;;;;;;;;;;;;4.60;nan;98657.06;4975875;28;19917;-86
2021/12/04 10:43:24;;;;;;;;;;;;;;;4.59;nan;98651.00;4975468;28;19960;-86
2021/12/04 10:45:53;;;;;;;;;;;;;;;4.63;nan;98649.72;4980601;28;19917;-86
2021/12/04 10:48:22;;;;;;;;;;;;;;;4.58;nan;98646.75;4991925;28;20027;-86
2021/12/04 10:53:22;;;;;;;;;;;;;;;4.55;nan;98636.59;4995838;28;19918;-86
2021/12/04 11:01:04;;;;;;;;;;;;;;;4.55;nan;98612.22;4993088;28;19960;-86
2021/12/04 11:06:31;;;;;;;;;;;;;;;4.54;nan;98603.56;4990364;28;20005;-85
2021/12/04 11:22:28;;;;;;;;;;;;;;;4.74;nan;98577.06;4990556;28;19921;-85
2021/12/04 11:44:08;;;;;;;;;;;;;;;4.81;nan;98534.34;4993906;28;19924;-86
2021/12/04 11:46:42;;;;;;;;;;;;;;;4.86;nan;98526.00;5010941;28;19952;-86
2021/12/04 11:49:18;;;;;;;;;;;;;;;4.94;nan;98533.06;4996200;28;20352;-85
2021/12/04 11:52:07;;;;;;;;;;;;;;;4.99;nan;98528.16;4978987;28;20005;-86
2021/12/04 11:54:42;;;;;;;;;;;;;;;5.03;nan;98524.19;4978709;28;19917;-86
2021/12/04 11:57:09;;;;;;;;;;;;;;;5.08;nan;98525.34;4990901;28;19918;-86
2021/12/04 11:59:35;;;;;;;;;;;;;;;5.11;nan;98524.19;4980929;28;19921;-85
2021/12/04 12:02:03;;;;;;;;;;;;;;;5.20;nan;98511.91;4983148;28;20005;-86
2021/12/04 12:04:34;;;;;;;;;;;;;;;5.23;nan;98501.91;4998652;28;19937;-86
2021/12/04 12:07:08;;;;;;;;;;;;;;;5.28;nan;98504.84;4998021;28;19917;-86
2021/12/04 12:09:35;;;;;;;;;;;;;;;5.36;nan;98496.13;4979812;28;19992;-87
2021/12/04 12:12:02;;;;;;;;;;;;;;;5.44;nan;98488.25;4983666;28;20338;-86
2021/12/04 12:14:38;;;;;;;;;;;;;;;5.53;nan;98482.00;4996333;28;20303;-86
2021/12/04 12:17:03;;;;;;;;;;;;;;;5.63;nan;98473.13;4994213;28;19921;-86
2021/12/04 12:19:43;;;;;;;;;;;;;;;5.69;nan;98478.47;4997746;28;19924;-87
2021/12/04 12:22:27;;;;;;;;;;;;;;;5.73;nan;98465.84;4984209;28;19918;-86
2021/12/04 12:25:08;;;;;;;;;;;;;;;5.75;nan;98463.88;4977750;28;19960;-87
2021/12/04 12:27:54;;;;;;;;;;;;;;;5.85;nan;98461.03;4972062;28;19929;-86
2021/12/04 12:33:11;;;;;;;;;;;;;;;5.98;nan;98458.69;4995595;28;19972;-86
2021/12/04 12:38:31;;;;;;;;;;;;;;;6.12;nan;98439.56;5007532;28;20414;-87
2021/12/04 12:40:57;;;;;;;;;;;;;;;6.15;nan;98431.38;5009388;28;19924;-86
2021/12/04 12:43:23;;;;;;;;;;;;;;;6.15;nan;98434.00;4996357;28;19953;-86
2021/12/04 12:45:52;;;;;;;;;;;;;;;6.18;nan;98424.16;5004533;28;20339;-86
2021/12/04 12:48:18;;;;;;;;;;;;;;;6.24;nan;98416.38;4979861;28;19918;-87
2021/12/04 12:50:44;;;;;;;;;;;;;;;6.24;nan;98421.63;4971567;28;20425;-86
2021/12/04 12:53:13;;;;;;;;;;;;;;;6.25;nan;98423.25;4974947;28;19983;-86
2021/12/04 12:55:39;;;;;;;;;;;;;;;6.27;nan;98417.81;5014136;28;19918;-86
2021/12/04 12:58:15;;;;;;;;;;;;;;;6.26;nan;98414.38;5005000;28;19918;-86
2021/12/04 13:11:44;;;;;;;;;;;;;;;6.22;nan;98401.78;4994872;28;19925;-86
2021/12/04 13:14:12;;;;;;;;;;;;;;;6.24;nan;98397.19;4993511;28;19918;-86
2021/12/04 13:16:42;;;;;;;;;;;;;;;6.31;nan;98393.66;5008958;28;19922;-86
2021/12/04 13:19:11;;;;;;;;;;;;;;;6.25;nan;98399.66;4976652;28;19928;-86
2021/12/04 13:21:39;;;;;;;;;;;;;;;6.33;nan;98394.31;4976109;28;19918;-86
2021/12/04 13:24:05;;;;;;;;;;;;;;;6.41;nan;98390.00;4988676;28;19920;-86
2021/12/04 13:26:32;;;;;;;;;;;;;;;6.41;nan;98392.63;5009904;28;20265;-86
2021/12/04 13:29:00;;;;;;;;;;;;;;;6.44;nan;98393.09;4977527;28;19913;-86
2021/12/04 13:31:25;;;;;;;;;;;;;;;6.49;nan;98389.94;5009105;28;19924;-86
2021/12/04 13:33:51;;;;;;;;;;;;;;;6.52;nan;98390.38;4978019;28;19917;-87
2021/12/04 13:36:19;;;;;;;;;;;;;;;6.51;nan;98380.06;4993101;28;19941;-86
2021/12/04 13:38:44;;;;;;;;;;;;;;;6.58;nan;98378.38;4983374;28;19917;-86
2021/12/04 13:41:10;;;;;;;;;;;;;;;6.61;nan;98380.63;5016963;28;20153;-86
2021/12/04 13:43:35;;;;;;;;;;;;;;;6.61;nan;98374.56;4981668;28;19917;-86
2021/12/04 13:46:02;;;;;;;;;;;;;;;6.71;nan;98372.47;4982238;28;20263;-86
2021/12/04 13:48:30;;;;;;;;;;;;;;;6.70;nan;98370.88;4977985;28;19925;-86
2021/12/04 13:50:55;;;;;;;;;;;;;;;6.69;nan;98383.16;4997686;28;19924;-86
2021/12/04 13:53:21;;;;;;;;;;;;;;;6.66;nan;98369.59;4997568;28;19918;-86
2021/12/04 13:55:49;;;;;;;;;;;;;;;6.56;nan;98381.16;4999708;28;19901;-87
2021/12/04 13:58:15;;;;;;;;;;;;;;;6.58;nan;98389.69;4981768;28;19999;-86
2021/12/04 14:00:42;;;;;;;;;;;;;;;6.57;nan;98395.09;5001585;28;19925;-86
2021/12/04 14:03:07;;;;;;;;;;;;;;;6.58;nan;98407.25;5000721;28;19914;-86
2021/12/04 14:05:32;;;;;;;;;;;;;;;6.61;nan;98419.19;5002440;28;19929;-86
2021/12/04 14:08:00;;;;;;;;;;;;;;;6.66;nan;98416.84;4978267;28;19918;-86
2021/12/04 14:10:34;;;;;;;;;;;;;;;6.55;nan;98434.69;4978511;28;19924;-86
2021/12/04 14:13:02;;;;;;;;;;;;;;;6.50;nan;98444.88;5009653;28;19913;-86
2021/12/04 14:15:27;;;;;;;;;;;;;;;6.52;nan;98448.13;4995195;28;19928;-86
2021/12/04 14:18:07;;;;;;;;;;;;;;;6.48;nan;98449.47;4976515;28;20387;-86
2021/12/04 14:20:33;;;;;;;;;;;;;;;6.54;nan;98454.03;4986243;28;19946;-86
2021/12/04 14:22:59;;;;;;;;;;;;;;;6.56;nan;98453.88;4979258;28;19917;-86
2021/12/04 14:25:25;;;;;;;;;;;;;;;6.56;nan;98462.56;4993872;28;19924;-87
2021/12/04 14:27:51;;;;;;;;;;;;;;;6.57;nan;98445.78;4988248;28;19921;-87
2021/12/04 14:30:16;;;;;;;;;;;;;;;6.58;nan;98423.81;4977442;28;19924;-86
2021/12/04 14:32:43;;;;;;;;;;;;;;;6.57;nan;98414.28;4996599;28;19917;-87
2021/12/04 14:35:16;;;;;;;;;;;;;;;6.56;nan;98401.34;5000211;28;20074;-87
2021/12/04 14:37:45;;;;;;;;;;;;;;;6.55;nan;98376.91;4985374;28;20065;-86
2021/12/04 14:40:12;;;;;;;;;;;;;;;6.61;nan;98353.56;5003152;28;19929;-85
2021/12/04 14:42:37;;;;;;;;;;;;;;;6.61;nan;98375.38;4993459;28;19921;-86
2021/12/04 14:45:05;;;;;;;;;;;;;;;6.56;nan;98385.59;5013274;28;19928;-86
2021/12/04 14:47:31;;;;;;;;;;;;;;;6.65;nan;98381.91;5004021;28;19925;-86
2021/12/04 14:50:00;;;;;;;;;;;;;;;6.68;nan;98368.41;4997628;28;19917;-86
2021/12/04 14:52:27;;;;;;;;;;;;;;;6.80;nan;98376.66;4995250;28;19926;-86
2021/12/04 14:54:52;;;;;;;;;;;;;;;6.88;nan;98373.13;4994913;28;19918;-87
2021/12/04 14:57:21;;;;;;;;;;;;;;;6.92;nan;98372.56;4997531;28;19918;-86
2021/12/04 14:59:46;;;;;;;;;;;;;;;6.94;nan;98378.47;5014425;28;19980;-88
2021/12/04 15:02:13;;;;;;;;;;;;;;;6.97;nan;98374.66;5006514;28;19918;-87
2021/12/04 15:04:39;;;;;;;;;;;;;;;7.01;nan;98384.63;5008650;28;19924;-87
2021/12/04 15:07:04;;;;;;;;;;;;;;;7.08;nan;98395.25;5009329;28;19941;-86
2021/12/04 15:09:29;;;;;;;;;;;;;;;7.18;nan;98387.88;5028134;28;19941;-87
2021/12/04 15:11:55;;;;;;;;;;;;;;;7.16;nan;98399.56;5006966;28;19960;-87
2021/12/04 15:14:30;;;;;;;;;;;;;;;7.24;nan;98399.47;5002986;28;21962;-86
2021/12/04 15:17:04;;;;;;;;;;;;;;;7.26;nan;98405.38;5017947;28;20409;-86
2021/12/04 15:19:46;;;;;;;;;;;;;;;7.31;nan;98417.97;5019551;28;19917;-87
2021/12/04 15:22:15;;;;;;;;;;;;;;;7.34;nan;98404.44;5020678;28;20402;-87
2021/12/04 15:24:43;;;;;;;;;;;;;;;7.38;nan;98411.78;5003166;28;19920;-87
2021/12/04 15:27:14;;;;;;;;;;;;;;;7.39;nan;98402.91;5034918;28;19985;-86
2021/12/04 15:29:39;;;;;;;;;;;;;;;7.43;nan;98411.25;5034323;28;20375;-86
2021/12/04 15:32:09;;;;;;;;;;;;;;;7.46;nan;98408.25;5018064;28;19913;-86
2021/12/04 15:34:51;;;;;;;;;;;;;;;7.41;nan;98408.81;5020573;28;20284;-87
2021/12/04 15:37:27;;;;;;;;;;;;;;;7.46;nan;98416.16;5018031;28;20344;-87
2021/12/04 15:39:53;;;;;;;;;;;;;;;7.42;nan;98414.88;5017072;28;19917;-87
2021/12/04 15:42:32;;;;;;;;;;;;;;;7.41;nan;98410.59;5034398;28;19924;-87
2021/12/04 15:48:01;;;;;;;;;;;;;;;7.32;nan;98417.78;4997708;28;20199;-87
2021/12/04 15:53:13;;;;;;;;;;;;;;;7.31;nan;98431.09;4998853;28;20309;-86
2021/12/04 15:55:38;;;;;;;;;;;;;;;7.30;nan;98435.56;4996658;28;19937;-86
2021/12/04 15:58:08;;;;;;;;;;;;;;;7.29;nan;98444.44;5023954;28;19917;-87
2021/12/04 16:00:35;;;;;;;;;;;;;;;7.35;nan;98454.22;5032260;28;20053;-87
2021/12/04 16:03:03;;;;;;;;;;;;;;;7.40;nan;98456.31;5031754;28;19956;-86
2021/12/04 16:05:32;;;;;;;;;;;;;;;7.42;nan;98460.38;5016512;28;20071;-87
2021/12/04 16:08:02;;;;;;;;;;;;;;;7.46;nan;98460.84;5032863;28;19913;-86
2021/12/04 16:10:27;;;;;;;;;;;;;;;7.43;nan;98456.75;5031593;28;20012;-87
2021/12/04 16:12:55;;;;;;;;;;;;;;;7.49;nan;98451.78;4998020;28;20355;-87
2021/12/04 16:15:22;;;;;;;;;;;;;;;7.45;nan;98446.88;5031550;28;19948;-87